createdAt,value
2018-11-04T00:01:51.667Z,8.80
2018-11-04T00:04:20.171Z,8.90
2018-11-04T00:06:48.749Z,8.90
2018-11-04T00:09:17.423Z,8.80
2018-11-04T00:11:46.426Z,8.80
2018-11-04T00:14:14.983Z,8.80
2018-11-04T00:16:43.489Z,8.80
2018-11-04T00:19:12.091Z,8.80
2018-11-04T00:21:40.621Z,8.80
2018-11-04T00:24:09.271Z,8.80
2018-11-04T00:26:37.651Z,8.80
2018-11-04T00:29:06.204Z,8.80
2018-11-04T00:31:34.675Z,8.80
2018-11-04T00:34:03.182Z,8.80
2018-11-04T00:36:31.692Z,8.90
2018-11-04T00:39:00.230Z,8.90
2018-11-04T00:41:29.259Z,8.90
2018-11-04T00:43:57.797Z,8.90
2018-11-04T00:46:26.718Z,8.90
2018-11-04T00:48:56.427Z,8.90
2018-11-04T00:51:24.913Z,8.90
2018-11-04T00:53:53.403Z,8.80
2018-11-04T00:56:21.911Z,8.80
2018-11-04T00:58:50.391Z,8.80
2018-11-04T01:01:18.875Z,8.80
2018-11-04T01:03:47.386Z,8.80
2018-11-04T01:06:15.877Z,8.80
2018-11-04T01:08:44.462Z,8.80
2018-11-04T01:11:12.939Z,8.70
2018-11-04T01:13:41.447Z,8.70
2018-11-04T01:16:09.925Z,8.70
2018-11-04T01:18:38.433Z,8.80
2018-11-04T01:21:06.999Z,8.80
2018-11-04T01:23:35.460Z,8.70
2018-11-04T01:26:03.960Z,8.70
2018-11-04T01:28:32.489Z,8.70
2018-11-04T01:31:01.021Z,8.70
2018-11-04T01:33:29.536Z,8.70
2018-11-04T01:35:58.034Z,8.70
2018-11-04T01:38:26.612Z,8.70
2018-11-04T01:40:55.089Z,8.70
2018-11-04T01:43:23.602Z,8.60
2018-11-04T01:45:52.102Z,8.70
2018-11-04T01:48:20.592Z,8.70
2018-11-04T01:50:49.080Z,8.60
2018-11-04T01:53:17.565Z,8.70
2018-11-04T01:55:46.052Z,8.60
2018-11-04T01:58:14.543Z,8.70
2018-11-04T02:00:43.136Z,8.70
2018-11-04T02:03:11.682Z,8.70
2018-11-04T02:05:40.160Z,8.70
2018-11-04T02:08:08.694Z,8.70
2018-11-04T02:10:37.189Z,8.70
2018-11-04T02:13:05.734Z,8.70
2018-11-04T02:15:34.235Z,8.70
2018-11-04T02:18:02.726Z,8.70
2018-11-04T02:20:31.224Z,8.70
2018-11-04T02:22:59.707Z,8.80
2018-11-04T02:25:28.199Z,8.70
2018-11-04T02:27:56.703Z,8.70
2018-11-04T02:30:25.191Z,8.70
2018-11-04T02:32:53.738Z,8.70
2018-11-04T02:35:22.215Z,8.70
2018-11-04T02:37:50.680Z,8.70
2018-11-04T02:40:19.173Z,8.70
2018-11-04T02:42:47.678Z,8.70
2018-11-04T02:45:16.192Z,8.60
2018-11-04T02:47:44.703Z,8.60
2018-11-04T02:50:13.228Z,8.60
2018-11-04T02:52:41.713Z,8.70
2018-11-04T02:55:10.219Z,8.70
2018-11-04T02:57:38.781Z,8.70
2018-11-04T03:00:11.448Z,8.60
2018-11-04T03:02:40.133Z,8.60
2018-11-04T03:05:09.256Z,8.60
2018-11-04T03:07:37.800Z,8.60
2018-11-04T03:10:06.684Z,8.60
2018-11-04T03:12:35.172Z,8.60
2018-11-04T03:15:03.700Z,8.60
2018-11-04T03:17:32.202Z,8.60
2018-11-04T03:20:00.708Z,8.50
2018-11-04T03:22:29.231Z,8.40
2018-11-04T03:24:57.732Z,8.40
2018-11-04T03:27:26.462Z,8.40
2018-11-04T03:29:54.968Z,8.40
2018-11-04T03:32:23.502Z,8.40
2018-11-04T03:34:51.977Z,8.30
2018-11-04T03:37:20.462Z,8.30
2018-11-04T03:39:48.930Z,8.30
2018-11-04T03:42:17.432Z,8.30
2018-11-04T03:44:45.921Z,8.30
2018-11-04T03:47:14.436Z,8.40
2018-11-04T03:49:42.953Z,8.40
2018-11-04T03:52:11.447Z,8.40
2018-11-04T03:54:39.928Z,8.40
2018-11-04T03:57:08.435Z,8.40
2018-11-04T03:59:36.937Z,8.40
2018-11-04T04:02:05.820Z,8.40
2018-11-04T04:04:34.320Z,8.40
2018-11-04T04:07:02.818Z,8.50
2018-11-04T04:09:31.323Z,8.50
2018-11-04T04:11:59.832Z,8.50
2018-11-04T04:14:28.327Z,8.50
2018-11-04T04:16:56.795Z,8.60
2018-11-04T04:19:25.293Z,8.60
2018-11-04T04:21:53.814Z,8.60
2018-11-04T04:24:22.318Z,8.50
2018-11-04T04:26:50.815Z,8.60
2018-11-04T04:29:19.349Z,8.60
2018-11-04T04:31:47.852Z,8.60
2018-11-04T04:34:16.369Z,8.60
2018-11-04T04:36:44.880Z,8.60
2018-11-04T04:39:13.401Z,8.60
2018-11-04T04:41:41.897Z,8.60
2018-11-04T04:44:10.413Z,8.50
2018-11-04T04:46:38.953Z,8.50
2018-11-04T04:49:07.452Z,8.50
2018-11-04T04:51:35.972Z,8.60
2018-11-04T04:54:04.721Z,8.60
2018-11-04T04:56:33.197Z,8.60
2018-11-04T04:59:01.700Z,8.60
2018-11-04T05:01:30.214Z,8.60
2018-11-04T05:03:58.712Z,8.60
2018-11-04T05:06:27.290Z,8.50
2018-11-04T05:08:55.800Z,8.50
2018-11-04T05:11:24.296Z,8.50
2018-11-04T05:13:53.013Z,8.50
2018-11-04T05:16:21.563Z,8.40
2018-11-04T05:18:50.062Z,8.40
2018-11-04T05:21:18.569Z,8.40
2018-11-04T05:23:47.087Z,8.40
2018-11-04T05:26:15.566Z,8.40
2018-11-04T05:28:44.108Z,8.40
2018-11-04T05:31:12.618Z,8.40
2018-11-04T05:33:41.113Z,8.40
2018-11-04T05:36:09.704Z,8.40
2018-11-04T05:38:38.179Z,8.40
2018-11-04T05:41:06.698Z,8.40
2018-11-04T05:43:35.173Z,8.40
2018-11-04T05:46:03.697Z,8.50
2018-11-04T05:48:32.293Z,8.50
2018-11-04T05:51:00.800Z,8.50
2018-11-04T05:53:29.284Z,8.40
2018-11-04T05:55:57.908Z,8.50
2018-11-04T05:58:26.367Z,8.50
2018-11-04T06:00:54.840Z,8.50
2018-11-04T06:03:23.328Z,8.60
2018-11-04T06:05:51.822Z,8.50
2018-11-04T06:08:20.330Z,8.60
2018-11-04T06:10:48.818Z,8.60
2018-11-04T06:13:17.328Z,8.60
2018-11-04T06:15:45.856Z,8.60
2018-11-04T06:18:14.345Z,8.60
2018-11-04T06:20:42.853Z,8.60
2018-11-04T06:23:11.339Z,8.60
2018-11-04T06:25:39.845Z,8.70
2018-11-04T06:28:08.313Z,8.70
2018-11-04T06:30:36.818Z,8.70
2018-11-04T06:33:05.389Z,8.70
2018-11-04T06:35:33.878Z,8.70
2018-11-04T06:38:02.405Z,8.80
2018-11-04T06:40:30.899Z,8.80
2018-11-04T06:42:59.390Z,8.90
2018-11-04T06:45:27.910Z,8.90
2018-11-04T06:47:56.431Z,9.00
2018-11-04T06:50:24.941Z,9.00
2018-11-04T06:52:53.425Z,9.00
2018-11-04T06:55:21.944Z,9.00
2018-11-04T06:57:50.436Z,9.10
2018-11-04T07:00:18.943Z,9.10
2018-11-04T07:02:47.451Z,9.10
2018-11-04T07:05:15.947Z,9.10
2018-11-04T07:07:44.451Z,9.10
2018-11-04T07:10:13.059Z,9.10
2018-11-04T07:12:41.562Z,9.10
2018-11-04T07:15:10.083Z,9.00
2018-11-04T07:17:38.628Z,9.00
2018-11-04T07:20:08.345Z,9.00
2018-11-04T07:22:36.859Z,9.00
2018-11-04T07:25:05.828Z,9.00
2018-11-04T07:27:34.350Z,9.00
2018-11-04T07:30:02.847Z,9.00
2018-11-04T07:32:31.343Z,9.00
2018-11-04T07:34:59.868Z,9.00
2018-11-04T07:37:28.364Z,9.00
2018-11-04T07:39:56.873Z,9.00
2018-11-04T07:42:25.514Z,9.00
2018-11-04T07:44:54.025Z,9.00
2018-11-04T07:47:22.530Z,9.00
2018-11-04T07:49:51.020Z,9.00
2018-11-04T07:52:19.522Z,9.10
2018-11-04T07:54:48.036Z,9.10
2018-11-04T07:57:16.828Z,9.10
2018-11-04T07:59:45.371Z,9.10
2018-11-04T08:02:13.890Z,9.10
2018-11-04T08:04:42.376Z,9.20
2018-11-04T08:07:10.862Z,9.20
2018-11-04T08:09:39.382Z,9.30
2018-11-04T08:12:07.970Z,9.30
2018-11-04T08:14:36.495Z,9.30
2018-11-04T08:17:05.115Z,9.30
2018-11-04T08:19:33.608Z,9.40
2018-11-04T08:22:02.118Z,9.40
2018-11-04T08:24:30.642Z,9.50
2018-11-04T08:26:59.133Z,9.50
2018-11-04T08:29:27.629Z,9.50
2018-11-04T08:31:56.131Z,9.50
2018-11-04T08:34:24.632Z,9.60
2018-11-04T08:36:53.135Z,9.60
2018-11-04T08:39:21.619Z,9.70
2018-11-04T08:41:50.163Z,9.70
2018-11-04T08:44:18.683Z,9.70
2018-11-04T08:46:47.198Z,9.80
2018-11-04T08:49:15.689Z,9.80
2018-11-04T08:51:44.184Z,9.80
2018-11-04T08:54:12.681Z,9.80
2018-11-04T08:56:41.194Z,9.80
2018-11-04T08:59:09.688Z,9.80
2018-11-04T09:01:38.186Z,9.80
2018-11-04T09:04:06.680Z,9.80
2018-11-04T09:06:35.240Z,9.90
2018-11-04T09:09:04.992Z,9.90
2018-11-04T09:11:33.538Z,9.90
2018-11-04T09:14:02.084Z,10.00
2018-11-04T09:16:30.656Z,10.00
2018-11-04T09:18:59.456Z,10.10
2018-11-04T09:21:27.994Z,10.20
2018-11-04T09:23:56.502Z,10.20
2018-11-04T09:26:25.089Z,10.20
2018-11-04T09:28:54.226Z,10.20
2018-11-04T09:31:22.686Z,10.20
2018-11-04T09:33:51.236Z,10.20
2018-11-04T09:36:19.970Z,10.20
2018-11-04T09:38:48.295Z,10.30
2018-11-04T09:41:16.830Z,10.40
2018-11-04T09:43:45.345Z,10.40
2018-11-04T09:46:13.855Z,10.50
2018-11-04T09:48:42.800Z,10.50
2018-11-04T09:51:11.304Z,10.60
2018-11-04T09:53:39.806Z,10.60
2018-11-04T09:56:08.310Z,10.70
2018-11-04T09:58:36.815Z,10.70
2018-11-04T10:01:05.612Z,10.80
2018-11-04T10:03:34.130Z,10.90
2018-11-04T10:06:02.648Z,11.00
2018-11-04T10:08:31.156Z,11.10
2018-11-04T10:10:59.651Z,11.20
2018-11-04T10:13:28.382Z,11.40
2018-11-04T10:15:56.709Z,11.60
2018-11-04T10:18:25.269Z,11.80
2018-11-04T10:20:54.243Z,11.90
2018-11-04T10:23:22.380Z,11.90
2018-11-04T10:25:50.888Z,12.00
2018-11-04T10:28:19.391Z,12.10
2018-11-04T10:30:47.920Z,12.10
2018-11-04T10:33:16.419Z,11.90
2018-11-04T10:35:44.957Z,11.90
2018-11-04T10:38:13.458Z,11.80
2018-11-04T10:40:41.975Z,11.80
2018-11-04T10:43:10.519Z,11.80
2018-11-04T10:45:39.038Z,11.90
2018-11-04T10:48:07.589Z,11.90
2018-11-04T10:50:36.098Z,11.90
2018-11-04T10:53:04.868Z,12.10
2018-11-04T10:55:33.466Z,12.10
2018-11-04T10:58:01.964Z,12.20
2018-11-04T11:00:35.835Z,12.30
2018-11-04T11:03:04.489Z,12.40
2018-11-04T11:05:33.111Z,12.30
2018-11-04T11:08:01.650Z,12.40
2018-11-04T11:10:30.194Z,12.40
2018-11-04T11:12:58.715Z,12.50
2018-11-04T11:15:27.276Z,12.50
2018-11-04T11:17:55.811Z,12.40
2018-11-04T11:20:24.329Z,12.30
2018-11-04T11:22:52.859Z,12.20
2018-11-04T11:25:21.393Z,12.10
2018-11-04T11:27:49.936Z,12.00
2018-11-04T11:30:18.543Z,12.00
2018-11-04T11:32:46.985Z,12.00
2018-11-04T11:35:15.525Z,12.00
2018-11-04T11:37:44.070Z,12.10
2018-11-04T11:40:12.606Z,12.10
2018-11-04T11:42:41.142Z,12.00
2018-11-04T11:45:10.246Z,11.90
2018-11-04T11:47:38.793Z,11.90
2018-11-04T11:50:07.618Z,12.00
2018-11-04T11:52:36.242Z,12.00
2018-11-04T11:55:05.312Z,12.00
2018-11-04T11:57:33.825Z,12.00
2018-11-04T12:00:02.353Z,12.00
2018-11-04T12:02:30.885Z,12.00
2018-11-04T12:04:59.407Z,12.00
2018-11-04T12:07:27.966Z,12.00
2018-11-04T12:09:56.473Z,12.00
2018-11-04T12:12:24.973Z,12.10
2018-11-04T12:14:53.552Z,12.10
2018-11-04T12:17:22.070Z,12.10
2018-11-04T12:19:50.606Z,12.00
2018-11-04T12:22:19.241Z,11.90
2018-11-04T12:24:47.853Z,11.90
2018-11-04T12:27:16.440Z,12.00
2018-11-04T12:29:44.986Z,12.00
2018-11-04T12:32:13.540Z,12.00
2018-11-04T12:34:42.057Z,12.00
2018-11-04T12:37:10.636Z,12.10
2018-11-04T12:39:39.197Z,12.00
2018-11-04T12:42:07.699Z,12.00
2018-11-04T12:44:36.211Z,11.90
2018-11-04T12:47:04.865Z,11.90
2018-11-04T12:49:33.398Z,12.00
2018-11-04T12:52:01.939Z,12.00
2018-11-04T12:54:30.518Z,12.00
2018-11-04T12:56:59.087Z,12.00
2018-11-04T12:59:27.648Z,12.10
2018-11-04T13:01:56.215Z,12.10
2018-11-04T13:04:24.810Z,12.00
2018-11-04T13:06:53.320Z,12.00
2018-11-04T13:09:21.854Z,12.00
2018-11-04T13:11:50.382Z,12.00
2018-11-04T13:14:18.915Z,11.90
2018-11-04T13:16:47.466Z,11.80
2018-11-04T13:19:16.089Z,11.80
2018-11-04T13:21:44.727Z,11.70
2018-11-04T13:24:13.251Z,11.70
2018-11-04T13:26:41.849Z,11.70
2018-11-04T13:29:10.392Z,11.70
2018-11-04T13:31:38.955Z,11.70
2018-11-04T13:34:07.497Z,11.60
2018-11-04T13:36:36.017Z,11.60
2018-11-04T13:39:06.335Z,11.60
2018-11-04T13:41:34.877Z,11.60
2018-11-04T13:44:03.466Z,11.50
2018-11-04T13:46:31.973Z,11.60
2018-11-04T13:49:00.499Z,11.50
2018-11-04T13:51:29.119Z,11.50
2018-11-04T13:53:57.999Z,11.50
2018-11-04T13:56:26.551Z,11.60
2018-11-04T13:58:55.093Z,11.60
2018-11-04T14:01:23.600Z,11.70
2018-11-04T14:03:52.111Z,11.60
2018-11-04T14:06:20.680Z,11.60
2018-11-04T14:08:49.222Z,11.50
2018-11-04T14:11:17.798Z,11.40
2018-11-04T14:13:46.306Z,11.40
2018-11-04T14:16:14.849Z,11.30
2018-11-04T14:18:43.459Z,11.20
2018-11-04T14:21:11.980Z,11.10
2018-11-04T14:23:40.542Z,11.00
2018-11-04T14:26:09.390Z,11.00
2018-11-04T14:28:37.936Z,11.00
2018-11-04T14:31:06.555Z,11.00
2018-11-04T14:33:35.025Z,11.00
2018-11-04T14:36:03.606Z,10.90
2018-11-04T14:38:32.161Z,10.90
2018-11-04T14:41:00.709Z,10.80
2018-11-04T14:43:29.609Z,10.90
2018-11-04T14:45:58.146Z,10.90
2018-11-04T14:48:26.713Z,10.80
2018-11-04T14:50:55.203Z,10.80
2018-11-04T14:53:23.824Z,10.80
2018-11-04T14:55:52.353Z,10.90
2018-11-04T14:58:20.910Z,10.90
2018-11-04T15:00:49.495Z,10.90
2018-11-04T15:03:17.940Z,10.90
2018-11-04T15:05:47.592Z,10.90
2018-11-04T15:08:16.147Z,10.80
2018-11-04T15:10:45.577Z,10.70
2018-11-04T15:13:14.077Z,10.70
2018-11-04T15:15:42.605Z,10.70
2018-11-04T15:18:11.149Z,10.60
2018-11-04T15:20:39.683Z,10.60
2018-11-04T15:23:08.198Z,10.60
2018-11-04T15:25:36.763Z,10.50
2018-11-04T15:28:05.375Z,10.50
2018-11-04T15:30:33.869Z,10.40
2018-11-04T15:33:02.434Z,10.40
2018-11-04T15:35:30.969Z,10.40
2018-11-04T15:37:59.615Z,10.30
2018-11-04T15:40:28.169Z,10.30
2018-11-04T15:42:56.716Z,10.20
2018-11-04T15:45:25.274Z,10.20
2018-11-04T15:47:53.860Z,10.20
2018-11-04T15:50:22.445Z,10.10
2018-11-04T15:52:51.014Z,10.10
2018-11-04T15:55:19.572Z,10.10
2018-11-04T15:57:48.102Z,10.10
2018-11-04T16:00:16.647Z,10.00
2018-11-04T16:02:45.211Z,10.00
2018-11-04T16:05:13.777Z,10.00
2018-11-04T16:07:42.334Z,9.90
2018-11-04T16:10:11.709Z,9.90
2018-11-04T16:12:40.269Z,9.80
2018-11-04T16:15:10.716Z,9.90
2018-11-04T16:17:39.252Z,9.80
2018-11-04T16:20:09.455Z,9.80
2018-11-04T16:22:38.635Z,9.80
2018-11-04T16:25:07.637Z,9.80
2018-11-04T16:27:36.239Z,9.80
2018-11-04T16:30:05.962Z,9.80
2018-11-04T16:32:34.790Z,9.70
2018-11-04T16:35:04.301Z,9.70
2018-11-04T16:37:32.820Z,9.70
2018-11-04T16:40:01.345Z,9.70
2018-11-04T16:42:29.914Z,9.70
2018-11-04T16:44:58.484Z,9.70
2018-11-04T16:47:26.995Z,9.70
2018-11-04T16:49:55.553Z,9.70
2018-11-04T16:52:24.086Z,9.60
2018-11-04T16:54:52.633Z,9.60
2018-11-04T16:57:21.149Z,9.60
2018-11-04T16:59:49.710Z,9.60
2018-11-04T17:02:18.308Z,9.60
2018-11-04T17:04:46.991Z,9.60
2018-11-04T17:07:15.443Z,9.70
2018-11-04T17:09:43.964Z,9.70
2018-11-04T17:12:12.528Z,9.80
2018-11-04T17:14:41.065Z,9.80
2018-11-04T17:17:09.767Z,9.70
2018-11-04T17:19:38.329Z,9.70
2018-11-04T17:22:06.957Z,9.70
2018-11-04T17:24:35.510Z,9.70
2018-11-04T17:27:04.079Z,9.70
2018-11-04T17:29:32.619Z,9.70
2018-11-04T17:32:01.160Z,9.70
2018-11-04T17:34:29.699Z,9.60
2018-11-04T17:36:58.241Z,9.70
2018-11-04T17:39:26.876Z,9.60
2018-11-04T17:41:55.384Z,9.70
2018-11-04T17:44:23.968Z,9.70
2018-11-04T17:46:52.553Z,9.70
2018-11-04T17:49:21.132Z,9.70
2018-11-04T17:51:49.708Z,9.80
2018-11-04T17:54:18.322Z,9.80
2018-11-04T17:56:46.775Z,9.80
2018-11-04T17:59:15.313Z,9.80
2018-11-04T18:01:43.854Z,9.80
2018-11-04T18:04:12.567Z,9.80
2018-11-04T18:06:41.210Z,9.80
2018-11-04T18:09:10.206Z,9.80
2018-11-04T18:11:38.816Z,9.80
2018-11-04T18:14:07.414Z,9.90
2018-11-04T18:16:35.965Z,10.00
2018-11-04T18:19:04.500Z,10.00
2018-11-04T18:21:33.016Z,10.10
2018-11-04T18:24:01.548Z,10.20
2018-11-04T18:26:30.216Z,10.20
2018-11-04T18:28:58.708Z,10.20
2018-11-04T18:31:27.273Z,10.20
2018-11-04T18:33:56.192Z,10.20
2018-11-04T18:36:24.738Z,10.20
2018-11-04T18:38:53.305Z,10.10
2018-11-04T18:41:21.849Z,10.10
2018-11-04T18:43:50.520Z,10.10
2018-11-04T18:46:18.982Z,10.10
2018-11-04T18:48:47.557Z,10.20
2018-11-04T18:51:16.118Z,10.30
2018-11-04T18:53:44.669Z,10.20
2018-11-04T18:56:13.223Z,10.30
2018-11-04T18:58:41.821Z,10.30
2018-11-04T19:01:10.365Z,10.30
2018-11-04T19:03:38.932Z,10.30
2018-11-04T19:06:07.481Z,10.30
2018-11-04T19:08:36.011Z,10.30
2018-11-04T19:11:05.013Z,10.40
2018-11-04T19:13:33.667Z,10.40
2018-11-04T19:16:02.246Z,10.40
2018-11-04T19:18:30.805Z,10.40
2018-11-04T19:20:59.357Z,10.40
2018-11-04T19:23:27.941Z,10.50
2018-11-04T19:25:56.533Z,10.60
2018-11-04T19:28:25.123Z,10.60
2018-11-04T19:30:53.686Z,10.80
2018-11-04T19:33:22.214Z,11.00
2018-11-04T19:35:50.729Z,11.00
2018-11-04T19:38:19.288Z,11.20
2018-11-04T19:40:47.872Z,11.20
2018-11-04T19:43:17.130Z,11.00
2018-11-04T19:45:45.672Z,11.00
2018-11-04T19:48:14.305Z,10.90
2018-11-04T19:50:42.792Z,10.80
2018-11-04T19:53:11.280Z,10.90
2018-11-04T19:55:39.860Z,10.80
2018-11-04T19:58:08.392Z,10.80
2018-11-04T20:00:36.909Z,11.00
2018-11-04T20:03:05.676Z,11.40
2018-11-04T20:05:34.188Z,11.70
2018-11-04T20:08:02.750Z,11.80
2018-11-04T20:10:31.322Z,11.80
2018-11-04T20:13:05.118Z,11.70
2018-11-04T20:15:33.689Z,11.60
2018-11-04T20:18:06.436Z,11.60
2018-11-04T20:20:34.988Z,11.60
2018-11-04T20:23:03.547Z,11.50
2018-11-04T20:25:37.297Z,11.50
2018-11-04T20:28:05.870Z,11.40
2018-11-04T20:30:34.422Z,11.40
2018-11-04T20:33:04.875Z,11.40
2018-11-04T20:35:33.433Z,11.30
2018-11-04T20:38:02.001Z,11.40
2018-11-04T20:40:35.925Z,11.30
2018-11-04T20:43:04.459Z,11.30
2018-11-04T20:45:33.021Z,11.40
2018-11-04T20:48:06.802Z,11.40
2018-11-04T20:50:40.676Z,11.40
2018-11-04T20:53:09.190Z,11.50
2018-11-04T20:55:43.107Z,11.60
2018-11-04T20:58:11.706Z,11.80
2018-11-04T21:00:40.241Z,11.90
2018-11-04T21:03:08.832Z,11.90
2018-11-04T21:05:37.400Z,11.80
2018-11-04T21:08:06.644Z,11.80
2018-11-04T21:10:35.221Z,11.80
2018-11-04T21:13:03.790Z,11.80
2018-11-04T21:15:32.320Z,11.90
2018-11-04T21:18:00.853Z,11.80
2018-11-04T21:20:29.406Z,11.80
2018-11-04T21:22:57.962Z,11.80
2018-11-04T21:25:26.688Z,12.10
2018-11-04T21:27:55.096Z,12.40
2018-11-04T21:30:23.652Z,12.50
2018-11-04T21:32:52.178Z,12.60
2018-11-04T21:35:20.700Z,12.70
2018-11-04T21:37:49.265Z,12.80
2018-11-04T21:40:17.828Z,12.70
2018-11-04T21:42:46.781Z,12.70
2018-11-04T21:45:15.150Z,12.60
2018-11-04T21:47:43.712Z,12.60
2018-11-04T21:50:12.624Z,12.50
2018-11-04T21:52:41.196Z,12.50
2018-11-04T21:55:11.754Z,12.50
2018-11-04T21:57:41.265Z,12.50
2018-11-04T22:00:11.779Z,12.40
2018-11-04T22:02:40.502Z,12.30
2018-11-04T22:05:09.855Z,12.30
2018-11-04T22:07:38.793Z,12.30
2018-11-04T22:10:10.004Z,12.20
2018-11-04T22:12:38.765Z,12.20
2018-11-04T22:15:07.698Z,12.20
2018-11-04T22:17:36.707Z,12.30
2018-11-04T22:20:06.067Z,12.50
2018-11-04T22:22:34.700Z,12.70
2018-11-04T22:25:03.283Z,12.80
2018-11-04T22:27:31.853Z,13.10
2018-11-04T22:30:00.401Z,13.40
2018-11-04T22:32:28.970Z,13.50
2018-11-04T22:34:57.530Z,13.40
2018-11-04T22:37:26.117Z,13.40
2018-11-04T22:39:54.682Z,13.30
2018-11-04T22:42:23.361Z,13.30
2018-11-04T22:44:51.798Z,13.20
2018-11-04T22:47:20.356Z,13.00
2018-11-04T22:49:48.914Z,13.00
2018-11-04T22:52:17.456Z,13.10
2018-11-04T22:54:46.033Z,13.10
2018-11-04T22:57:14.596Z,13.30
2018-11-04T22:59:43.116Z,13.30
2018-11-04T23:02:11.688Z,13.30
2018-11-04T23:04:45.448Z,13.20
2018-11-04T23:07:13.977Z,13.30
2018-11-04T23:09:42.522Z,13.40
2018-11-04T23:12:11.099Z,13.60
2018-11-04T23:14:39.652Z,13.80
2018-11-04T23:17:08.231Z,14.00
2018-11-04T23:19:36.805Z,14.00
2018-11-04T23:22:05.437Z,14.00
2018-11-04T23:24:33.996Z,13.90
2018-11-04T23:27:02.597Z,13.90
2018-11-04T23:29:31.207Z,13.70
2018-11-04T23:31:59.723Z,13.60
2018-11-04T23:34:28.298Z,13.40
2018-11-04T23:36:56.914Z,13.20
2018-11-04T23:39:25.458Z,13.20
2018-11-04T23:41:54.053Z,13.20
2018-11-04T23:44:22.585Z,13.20
2018-11-04T23:46:51.145Z,13.20
2018-11-04T23:49:19.697Z,13.50
2018-11-04T23:51:48.229Z,13.60
2018-11-04T23:54:16.804Z,13.70
2018-11-04T23:56:45.296Z,13.80
2018-11-04T23:59:13.837Z,13.80
